sensor_id;sensor_type;location;lat;lon;timestamp;P1;durP1;ratioP1;P2;durP2;ratioP2
74777;SDS011;63298;53.164;8.610;2022-12-07T00:01:20;7.22;;;4.80;;
74777;SDS011;63298;53.164;8.610;2022-12-07T00:03:48;8.35;;;4.53;;
74777;SDS011;63298;53.164;8.610;2022-12-07T00:06:16;9.77;;;5.25;;
74777;SDS011;63298;53.164;8.610;2022-12-07T00:08:42;9.20;;;5.03;;
74777;SDS011;63298;53.164;8.610;2022-12-07T00:11:09;7.13;;;4.45;;
74777;SDS011;63298;53.164;8.610;2022-12-07T00:13:36;9.50;;;5.00;;
74777;SDS011;63298;53.164;8.610;2022-12-07T00:16:03;8.48;;;4.57;;
74777;SDS011;63298;53.164;8.610;2022-12-07T00:18:30;10.68;;;4.60;;
74777;SDS011;63298;53.164;8.610;2022-12-07T00:20:59;7.07;;;4.30;;
74777;SDS011;63298;53.164;8.610;2022-12-07T00:23:26;8.23;;;4.60;;
74777;SDS011;63298;53.164;8.610;2022-12-07T00:25:51;6.68;;;4.30;;
74777;SDS011;63298;53.164;8.610;2022-12-07T00:28:16;8.93;;;5.00;;
74777;SDS011;63298;53.164;8.610;2022-12-07T00:30:42;10.40;;;4.70;;
74777;SDS011;63298;53.164;8.610;2022-12-07T00:33:07;7.00;;;4.22;;
74777;SDS011;63298;53.164;8.610;2022-12-07T00:35:32;11.50;;;4.90;;
74777;SDS011;63298;53.164;8.610;2022-12-07T00:37:58;8.52;;;4.70;;
74777;SDS011;63298;53.164;8.610;2022-12-07T00:40:23;10.77;;;4.57;;
74777;SDS011;63298;53.164;8.610;2022-12-07T00:42:48;6.88;;;4.05;;
74777;SDS011;63298;53.164;8.610;2022-12-07T00:45:14;10.18;;;4.63;;
74777;SDS011;63298;53.164;8.610;2022-12-07T00:47:39;6.10;;;3.83;;
74777;SDS011;63298;53.164;8.610;2022-12-07T00:50:04;7.43;;;3.97;;
74777;SDS011;63298;53.164;8.610;2022-12-07T00:52:30;8.00;;;4.47;;
74777;SDS011;63298;53.164;8.610;2022-12-07T00:54:55;8.80;;;4.07;;
74777;SDS011;63298;53.164;8.610;2022-12-07T00:57:21;9.17;;;4.97;;
74777;SDS011;63298;53.164;8.610;2022-12-07T00:59:46;11.43;;;4.03;;
74777;SDS011;63298;53.164;8.610;2022-12-07T01:02:11;6.28;;;3.80;;
74777;SDS011;63298;53.164;8.610;2022-12-07T01:04:36;9.57;;;3.50;;
74777;SDS011;63298;53.164;8.610;2022-12-07T01:07:02;8.10;;;3.90;;
74777;SDS011;63298;53.164;8.610;2022-12-07T01:09:27;8.23;;;3.70;;
74777;SDS011;63298;53.164;8.610;2022-12-07T01:11:52;8.57;;;4.20;;
74777;SDS011;63298;53.164;8.610;2022-12-07T01:14:18;12.27;;;4.07;;
74777;SDS011;63298;53.164;8.610;2022-12-07T01:16:43;6.43;;;3.10;;
74777;SDS011;63298;53.164;8.610;2022-12-07T01:19:08;5.63;;;3.10;;
74777;SDS011;63298;53.164;8.610;2022-12-07T01:21:34;5.57;;;2.55;;
74777;SDS011;63298;53.164;8.610;2022-12-07T01:24:00;4.05;;;1.77;;
74777;SDS011;63298;53.164;8.610;2022-12-07T01:26:26;3.40;;;1.70;;
74777;SDS011;63298;53.164;8.610;2022-12-07T01:28:52;3.50;;;1.65;;
74777;SDS011;63298;53.164;8.610;2022-12-07T01:31:20;2.22;;;1.42;;
74777;SDS011;63298;53.164;8.610;2022-12-07T01:33:47;7.57;;;1.95;;
74777;SDS011;63298;53.164;8.610;2022-12-07T01:36:16;5.00;;;1.63;;
74777;SDS011;63298;53.164;8.610;2022-12-07T01:38:56;7.53;;;1.92;;
74777;SDS011;63298;53.164;8.610;2022-12-07T01:41:25;7.78;;;2.78;;
74777;SDS011;63298;53.164;8.610;2022-12-07T01:49:22;6.55;;;2.17;;
74777;SDS011;63298;53.164;8.610;2022-12-07T01:51:52;8.27;;;2.55;;
74777;SDS011;63298;53.164;8.610;2022-12-07T01:54:39;5.97;;;1.92;;
74777;SDS011;63298;53.164;8.610;2022-12-07T01:57:06;6.63;;;1.85;;
74777;SDS011;63298;53.164;8.610;2022-12-07T01:59:33;7.80;;;2.33;;
74777;SDS011;63298;53.164;8.610;2022-12-07T02:01:58;5.65;;;2.20;;
74777;SDS011;63298;53.164;8.610;2022-12-07T02:04:26;5.43;;;2.15;;
74777;SDS011;63298;53.164;8.610;2022-12-07T02:06:52;6.25;;;2.20;;
74777;SDS011;63298;53.164;8.610;2022-12-07T02:09:19;4.18;;;2.40;;
74777;SDS011;63298;53.164;8.610;2022-12-07T02:11:45;6.10;;;1.88;;
74777;SDS011;63298;53.164;8.610;2022-12-07T02:14:10;5.93;;;2.63;;
74777;SDS011;63298;53.164;8.610;2022-12-07T02:19:30;4.95;;;2.60;;
74777;SDS011;63298;53.164;8.610;2022-12-07T02:25:13;4.82;;;2.30;;
74777;SDS011;63298;53.164;8.610;2022-12-07T02:27:47;4.03;;;2.20;;
74777;SDS011;63298;53.164;8.610;2022-12-07T02:30:35;4.80;;;2.13;;
74777;SDS011;63298;53.164;8.610;2022-12-07T02:33:15;6.35;;;2.38;;
74777;SDS011;63298;53.164;8.610;2022-12-07T02:38:27;6.25;;;2.40;;
74777;SDS011;63298;53.164;8.610;2022-12-07T02:41:16;6.80;;;2.92;;
74777;SDS011;63298;53.164;8.610;2022-12-07T02:43:54;3.97;;;2.58;;
74777;SDS011;63298;53.164;8.610;2022-12-07T02:46:24;5.13;;;2.47;;
74777;SDS011;63298;53.164;8.610;2022-12-07T02:48:53;6.00;;;2.53;;
74777;SDS011;63298;53.164;8.610;2022-12-07T02:51:20;5.32;;;2.15;;
74777;SDS011;63298;53.164;8.610;2022-12-07T02:53:46;4.53;;;2.50;;
74777;SDS011;63298;53.164;8.610;2022-12-07T03:07:24;3.03;;;1.63;;
74777;SDS011;63298;53.164;8.610;2022-12-07T03:15:43;4.32;;;2.17;;
74777;SDS011;63298;53.164;8.610;2022-12-07T03:18:10;3.13;;;1.48;;
74777;SDS011;63298;53.164;8.610;2022-12-07T03:20:37;8.23;;;1.67;;
74777;SDS011;63298;53.164;8.610;2022-12-07T03:23:06;3.75;;;1.33;;
74777;SDS011;63298;53.164;8.610;2022-12-07T03:25:33;3.45;;;1.55;;
74777;SDS011;63298;53.164;8.610;2022-12-07T03:28:02;4.35;;;1.17;;
74777;SDS011;63298;53.164;8.610;2022-12-07T03:30:32;7.80;;;1.38;;
74777;SDS011;63298;53.164;8.610;2022-12-07T03:35:36;2.35;;;1.20;;
74777;SDS011;63298;53.164;8.610;2022-12-07T03:38:12;2.50;;;1.05;;
74777;SDS011;63298;53.164;8.610;2022-12-07T03:41:22;2.63;;;1.30;;
74777;SDS011;63298;53.164;8.610;2022-12-07T03:43:44;5.40;;;1.50;;
74777;SDS011;63298;53.164;8.610;2022-12-07T03:49:10;4.20;;;1.73;;
74777;SDS011;63298;53.164;8.610;2022-12-07T03:51:46;3.80;;;1.70;;
74777;SDS011;63298;53.164;8.610;2022-12-07T03:54:38;5.40;;;1.80;;
74777;SDS011;63298;53.164;8.610;2022-12-07T03:57:09;4.93;;;1.77;;
74777;SDS011;63298;53.164;8.610;2022-12-07T03:59:37;5.18;;;2.35;;
74777;SDS011;63298;53.164;8.610;2022-12-07T04:02:05;6.28;;;2.00;;
74777;SDS011;63298;53.164;8.610;2022-12-07T04:04:32;3.25;;;2.08;;
74777;SDS011;63298;53.164;8.610;2022-12-07T04:07:01;5.38;;;2.30;;
74777;SDS011;63298;53.164;8.610;2022-12-07T04:09:27;7.22;;;2.35;;
74777;SDS011;63298;53.164;8.610;2022-12-07T04:11:53;4.00;;;2.15;;
74777;SDS011;63298;53.164;8.610;2022-12-07T04:14:18;6.13;;;2.40;;
74777;SDS011;63298;53.164;8.610;2022-12-07T04:16:44;6.32;;;2.50;;
74777;SDS011;63298;53.164;8.610;2022-12-07T04:19:13;5.82;;;2.30;;
74777;SDS011;63298;53.164;8.610;2022-12-07T04:21:39;4.50;;;2.45;;
74777;SDS011;63298;53.164;8.610;2022-12-07T04:24:05;10.15;;;2.15;;
74777;SDS011;63298;53.164;8.610;2022-12-07T04:26:31;5.55;;;2.28;;
74777;SDS011;63298;53.164;8.610;2022-12-07T04:28:56;6.18;;;1.92;;
74777;SDS011;63298;53.164;8.610;2022-12-07T04:31:22;9.20;;;2.33;;
74777;SDS011;63298;53.164;8.610;2022-12-07T04:33:47;5.18;;;2.50;;
74777;SDS011;63298;53.164;8.610;2022-12-07T04:36:12;4.10;;;2.50;;
74777;SDS011;63298;53.164;8.610;2022-12-07T04:38:38;5.10;;;2.50;;
74777;SDS011;63298;53.164;8.610;2022-12-07T04:41:06;9.25;;;2.60;;
74777;SDS011;63298;53.164;8.610;2022-12-07T04:43:32;7.82;;;3.08;;
74777;SDS011;63298;53.164;8.610;2022-12-07T04:45:58;4.03;;;2.10;;
74777;SDS011;63298;53.164;8.610;2022-12-07T04:48:24;6.40;;;2.20;;
74777;SDS011;63298;53.164;8.610;2022-12-07T04:50:49;5.57;;;2.42;;
74777;SDS011;63298;53.164;8.610;2022-12-07T04:53:14;6.45;;;1.95;;
74777;SDS011;63298;53.164;8.610;2022-12-07T04:55:40;10.55;;;2.63;;
74777;SDS011;63298;53.164;8.610;2022-12-07T04:58:05;4.70;;;1.80;;
74777;SDS011;63298;53.164;8.610;2022-12-07T05:00:30;4.77;;;2.10;;
74777;SDS011;63298;53.164;8.610;2022-12-07T05:02:55;5.97;;;2.13;;
74777;SDS011;63298;53.164;8.610;2022-12-07T05:05:21;7.10;;;2.27;;
74777;SDS011;63298;53.164;8.610;2022-12-07T05:07:46;5.22;;;2.05;;
74777;SDS011;63298;53.164;8.610;2022-12-07T05:10:11;3.80;;;2.05;;
74777;SDS011;63298;53.164;8.610;2022-12-07T05:12:37;4.90;;;2.13;;
74777;SDS011;63298;53.164;8.610;2022-12-07T05:15:02;4.22;;;1.85;;
74777;SDS011;63298;53.164;8.610;2022-12-07T05:17:28;4.65;;;1.52;;
74777;SDS011;63298;53.164;8.610;2022-12-07T05:19:53;5.07;;;1.67;;
74777;SDS011;63298;53.164;8.610;2022-12-07T05:22:18;6.80;;;1.70;;
74777;SDS011;63298;53.164;8.610;2022-12-07T05:24:44;5.28;;;1.63;;
74777;SDS011;63298;53.164;8.610;2022-12-07T05:27:09;2.07;;;1.57;;
74777;SDS011;63298;53.164;8.610;2022-12-07T05:29:35;3.67;;;1.70;;
74777;SDS011;63298;53.164;8.610;2022-12-07T05:32:00;3.97;;;1.40;;
74777;SDS011;63298;53.164;8.610;2022-12-07T05:34:25;1.40;;;1.13;;
74777;SDS011;63298;53.164;8.610;2022-12-07T05:36:51;3.80;;;1.48;;
74777;SDS011;63298;53.164;8.610;2022-12-07T05:39:16;2.00;;;1.23;;
74777;SDS011;63298;53.164;8.610;2022-12-07T05:41:41;5.57;;;1.42;;
74777;SDS011;63298;53.164;8.610;2022-12-07T05:44:06;2.60;;;1.20;;
74777;SDS011;63298;53.164;8.610;2022-12-07T05:46:32;4.55;;;1.02;;
74777;SDS011;63298;53.164;8.610;2022-12-07T05:48:58;2.90;;;0.95;;
74777;SDS011;63298;53.164;8.610;2022-12-07T05:51:23;3.55;;;0.88;;
74777;SDS011;63298;53.164;8.610;2022-12-07T05:53:48;4.05;;;1.30;;
74777;SDS011;63298;53.164;8.610;2022-12-07T05:56:14;3.40;;;0.83;;
74777;SDS011;63298;53.164;8.610;2022-12-07T05:58:39;2.75;;;0.80;;
74777;SDS011;63298;53.164;8.610;2022-12-07T06:01:04;4.43;;;0.85;;
74777;SDS011;63298;53.164;8.610;2022-12-07T06:03:30;3.00;;;0.73;;
74777;SDS011;63298;53.164;8.610;2022-12-07T06:05:55;0.87;;;0.80;;
74777;SDS011;63298;53.164;8.610;2022-12-07T06:08:20;4.63;;;1.05;;
74777;SDS011;63298;53.164;8.610;2022-12-07T06:10:46;2.73;;;0.80;;
74777;SDS011;63298;53.164;8.610;2022-12-07T06:13:12;0.85;;;0.60;;
74777;SDS011;63298;53.164;8.610;2022-12-07T06:15:37;2.57;;;0.60;;
74777;SDS011;63298;53.164;8.610;2022-12-07T06:18:03;2.72;;;1.02;;
74777;SDS011;63298;53.164;8.610;2022-12-07T06:20:28;1.83;;;0.80;;
74777;SDS011;63298;53.164;8.610;2022-12-07T06:22:53;2.53;;;0.98;;
74777;SDS011;63298;53.164;8.610;2022-12-07T06:25:19;1.20;;;0.87;;
74777;SDS011;63298;53.164;8.610;2022-12-07T06:27:44;2.78;;;0.80;;
74777;SDS011;63298;53.164;8.610;2022-12-07T06:30:09;5.50;;;0.70;;
74777;SDS011;63298;53.164;8.610;2022-12-07T06:32:36;1.10;;;0.60;;
74777;SDS011;63298;53.164;8.610;2022-12-07T06:35:01;4.47;;;0.80;;
74777;SDS011;63298;53.164;8.610;2022-12-07T06:37:27;3.17;;;0.70;;
74777;SDS011;63298;53.164;8.610;2022-12-07T06:39:52;3.55;;;0.60;;
74777;SDS011;63298;53.164;8.610;2022-12-07T06:42:17;4.07;;;0.87;;
74777;SDS011;63298;53.164;8.610;2022-12-07T06:44:43;3.17;;;0.63;;
74777;SDS011;63298;53.164;8.610;2022-12-07T06:47:08;0.70;;;0.70;;
74777;SDS011;63298;53.164;8.610;2022-12-07T06:49:33;2.10;;;1.00;;
74777;SDS011;63298;53.164;8.610;2022-12-07T06:51:59;4.28;;;0.90;;
74777;SDS011;63298;53.164;8.610;2022-12-07T06:54:24;5.15;;;0.88;;
74777;SDS011;63298;53.164;8.610;2022-12-07T06:56:50;3.50;;;0.95;;
74777;SDS011;63298;53.164;8.610;2022-12-07T06:59:15;2.58;;;0.77;;
74777;SDS011;63298;53.164;8.610;2022-12-07T07:01:40;2.38;;;0.75;;
74777;SDS011;63298;53.164;8.610;2022-12-07T07:04:06;5.15;;;2.58;;
74777;SDS011;63298;53.164;8.610;2022-12-07T07:06:31;9.73;;;3.50;;
74777;SDS011;63298;53.164;8.610;2022-12-07T07:08:56;5.70;;;2.00;;
74777;SDS011;63298;53.164;8.610;2022-12-07T07:11:22;7.40;;;1.50;;
74777;SDS011;63298;53.164;8.610;2022-12-07T07:13:47;5.30;;;1.42;;
74777;SDS011;63298;53.164;8.610;2022-12-07T07:16:12;4.63;;;0.98;;
74777;SDS011;63298;53.164;8.610;2022-12-07T07:18:38;3.63;;;1.30;;
74777;SDS011;63298;53.164;8.610;2022-12-07T07:21:03;5.68;;;1.10;;
74777;SDS011;63298;53.164;8.610;2022-12-07T07:23:29;4.88;;;1.13;;
74777;SDS011;63298;53.164;8.610;2022-12-07T07:25:55;5.60;;;1.10;;
74777;SDS011;63298;53.164;8.610;2022-12-07T07:28:20;8.35;;;1.40;;
74777;SDS011;63298;53.164;8.610;2022-12-07T07:30:46;2.00;;;0.77;;
74777;SDS011;63298;53.164;8.610;2022-12-07T07:33:11;6.50;;;1.20;;
74777;SDS011;63298;53.164;8.610;2022-12-07T07:35:36;1.42;;;1.00;;
74777;SDS011;63298;53.164;8.610;2022-12-07T07:38:02;6.43;;;0.95;;
74777;SDS011;63298;53.164;8.610;2022-12-07T07:40:28;3.80;;;0.80;;
74777;SDS011;63298;53.164;8.610;2022-12-07T07:42:54;3.47;;;0.98;;
74777;SDS011;63298;53.164;8.610;2022-12-07T07:45:20;5.95;;;0.75;;
74777;SDS011;63298;53.164;8.610;2022-12-07T07:47:46;1.58;;;0.70;;
74777;SDS011;63298;53.164;8.610;2022-12-07T07:50:12;1.42;;;0.65;;
74777;SDS011;63298;53.164;8.610;2022-12-07T07:52:38;3.08;;;0.93;;
74777;SDS011;63298;53.164;8.610;2022-12-07T07:55:03;4.43;;;0.68;;
74777;SDS011;63298;53.164;8.610;2022-12-07T07:57:29;2.67;;;0.80;;
74777;SDS011;63298;53.164;8.610;2022-12-07T07:59:54;2.78;;;0.70;;
74777;SDS011;63298;53.164;8.610;2022-12-07T08:02:20;3.20;;;0.60;;
74777;SDS011;63298;53.164;8.610;2022-12-07T08:04:45;5.00;;;0.80;;
74777;SDS011;63298;53.164;8.610;2022-12-07T08:07:11;3.42;;;0.65;;
74777;SDS011;63298;53.164;8.610;2022-12-07T08:09:37;0.88;;;0.55;;
74777;SDS011;63298;53.164;8.610;2022-12-07T08:12:03;3.35;;;0.68;;
74777;SDS011;63298;53.164;8.610;2022-12-07T08:14:28;2.30;;;0.50;;
74777;SDS011;63298;53.164;8.610;2022-12-07T08:16:54;2.65;;;0.77;;
74777;SDS011;63298;53.164;8.610;2022-12-07T08:19:22;3.75;;;0.40;;
74777;SDS011;63298;53.164;8.610;2022-12-07T08:21:47;1.23;;;0.52;;
74777;SDS011;63298;53.164;8.610;2022-12-07T08:24:13;4.40;;;0.60;;
74777;SDS011;63298;53.164;8.610;2022-12-07T08:26:39;2.90;;;0.47;;
74777;SDS011;63298;53.164;8.610;2022-12-07T08:29:05;1.88;;;0.57;;
74777;SDS011;63298;53.164;8.610;2022-12-07T08:31:30;8.33;;;0.97;;
74777;SDS011;63298;53.164;8.610;2022-12-07T08:33:56;5.35;;;1.10;;
74777;SDS011;63298;53.164;8.610;2022-12-07T08:36:21;1.42;;;0.70;;
74777;SDS011;63298;53.164;8.610;2022-12-07T08:38:47;4.95;;;0.80;;
74777;SDS011;63298;53.164;8.610;2022-12-07T08:41:12;1.77;;;0.70;;
74777;SDS011;63298;53.164;8.610;2022-12-07T08:43:37;3.00;;;0.80;;
74777;SDS011;63298;53.164;8.610;2022-12-07T08:48:41;3.60;;;1.08;;
74777;SDS011;63298;53.164;8.610;2022-12-07T08:51:14;1.60;;;0.60;;
74777;SDS011;63298;53.164;8.610;2022-12-07T08:53:40;6.13;;;0.82;;
74777;SDS011;63298;53.164;8.610;2022-12-07T08:56:06;2.90;;;0.60;;
74777;SDS011;63298;53.164;8.610;2022-12-07T08:58:33;1.40;;;0.70;;
74777;SDS011;63298;53.164;8.610;2022-12-07T09:01:00;4.78;;;0.70;;
74777;SDS011;63298;53.164;8.610;2022-12-07T09:03:25;2.40;;;0.60;;
74777;SDS011;63298;53.164;8.610;2022-12-07T09:05:51;5.53;;;0.80;;
74777;SDS011;63298;53.164;8.610;2022-12-07T09:08:18;4.65;;;1.33;;
74777;SDS011;63298;53.164;8.610;2022-12-07T09:10:44;0.65;;;0.57;;
74777;SDS011;63298;53.164;8.610;2022-12-07T09:13:10;3.83;;;0.73;;
74777;SDS011;63298;53.164;8.610;2022-12-07T09:15:35;4.78;;;0.98;;
74777;SDS011;63298;53.164;8.610;2022-12-07T09:18:00;2.58;;;0.90;;
74777;SDS011;63298;53.164;8.610;2022-12-07T09:20:25;3.58;;;1.00;;
74777;SDS011;63298;53.164;8.610;2022-12-07T09:22:51;2.10;;;0.75;;
74777;SDS011;63298;53.164;8.610;2022-12-07T09:25:16;1.98;;;1.05;;
74777;SDS011;63298;53.164;8.610;2022-12-07T09:27:41;1.83;;;0.77;;
74777;SDS011;63298;53.164;8.610;2022-12-07T09:30:07;3.42;;;0.80;;
74777;SDS011;63298;53.164;8.610;2022-12-07T09:32:33;4.70;;;1.48;;
74777;SDS011;63298;53.164;8.610;2022-12-07T09:34:58;5.50;;;1.38;;
74777;SDS011;63298;53.164;8.610;2022-12-07T09:37:23;4.28;;;0.98;;
74777;SDS011;63298;53.164;8.610;2022-12-07T09:39:49;4.68;;;1.23;;
74777;SDS011;63298;53.164;8.610;2022-12-07T09:42:26;2.15;;;0.95;;
74777;SDS011;63298;53.164;8.610;2022-12-07T09:44:54;3.25;;;0.98;;
74777;SDS011;63298;53.164;8.610;2022-12-07T09:47:20;2.85;;;0.90;;
74777;SDS011;63298;53.164;8.610;2022-12-07T09:49:46;4.50;;;1.10;;
74777;SDS011;63298;53.164;8.610;2022-12-07T09:54:37;7.37;;;1.00;;
74777;SDS011;63298;53.164;8.610;2022-12-07T09:57:08;2.78;;;0.65;;
74777;SDS011;63298;53.164;8.610;2022-12-07T09:59:36;1.35;;;1.20;;
74777;SDS011;63298;53.164;8.610;2022-12-07T10:02:19;4.85;;;1.13;;
74777;SDS011;63298;53.164;8.610;2022-12-07T10:04:50;1.98;;;1.15;;
74777;SDS011;63298;53.164;8.610;2022-12-07T10:07:15;2.25;;;1.00;;
74777;SDS011;63298;53.164;8.610;2022-12-07T10:09:40;5.43;;;1.20;;
74777;SDS011;63298;53.164;8.610;2022-12-07T10:12:07;4.63;;;1.30;;
74777;SDS011;63298;53.164;8.610;2022-12-07T10:14:34;5.97;;;1.40;;
74777;SDS011;63298;53.164;8.610;2022-12-07T10:17:02;4.15;;;1.10;;
74777;SDS011;63298;53.164;8.610;2022-12-07T10:19:47;6.53;;;1.05;;
74777;SDS011;63298;53.164;8.610;2022-12-07T10:22:14;2.17;;;1.03;;
74777;SDS011;63298;53.164;8.610;2022-12-07T10:24:42;1.88;;;1.00;;
74777;SDS011;63298;53.164;8.610;2022-12-07T10:27:21;1.50;;;0.85;;
74777;SDS011;63298;53.164;8.610;2022-12-07T10:29:54;2.35;;;0.90;;
74777;SDS011;63298;53.164;8.610;2022-12-07T10:34:45;2.37;;;0.63;;
74777;SDS011;63298;53.164;8.610;2022-12-07T10:42:19;3.20;;;0.73;;
74777;SDS011;63298;53.164;8.610;2022-12-07T10:44:47;3.83;;;1.10;;
74777;SDS011;63298;53.164;8.610;2022-12-07T11:04:47;6.15;;;1.73;;
74777;SDS011;63298;53.164;8.610;2022-12-07T11:07:23;3.78;;;1.58;;
74777;SDS011;63298;53.164;8.610;2022-12-07T11:10:14;5.75;;;1.23;;
74777;SDS011;63298;53.164;8.610;2022-12-07T11:15:24;3.63;;;1.02;;
74777;SDS011;63298;53.164;8.610;2022-12-07T11:18:00;4.60;;;0.75;;
74777;SDS011;63298;53.164;8.610;2022-12-07T11:23:25;2.85;;;0.90;;
74777;SDS011;63298;53.164;8.610;2022-12-07T11:28:49;4.45;;;1.05;;
74777;SDS011;63298;53.164;8.610;2022-12-07T11:31:21;3.65;;;0.70;;
74777;SDS011;63298;53.164;8.610;2022-12-07T11:36:41;8.63;;;1.30;;
74777;SDS011;63298;53.164;8.610;2022-12-07T11:41:56;5.93;;;0.73;;
74777;SDS011;63298;53.164;8.610;2022-12-07T11:44:52;8.27;;;0.90;;
74777;SDS011;63298;53.164;8.610;2022-12-07T11:47:40;3.15;;;0.63;;
74777;SDS011;63298;53.164;8.610;2022-12-07T11:58:47;4.90;;;1.60;;
74777;SDS011;63298;53.164;8.610;2022-12-07T12:06:37;4.32;;;0.82;;
74777;SDS011;63298;53.164;8.610;2022-12-07T12:09:14;7.05;;;1.83;;
74777;SDS011;63298;53.164;8.610;2022-12-07T12:14:46;4.95;;;0.70;;
74777;SDS011;63298;53.164;8.610;2022-12-07T12:20:18;5.63;;;1.13;;
74777;SDS011;63298;53.164;8.610;2022-12-07T12:23:07;5.85;;;1.40;;
74777;SDS011;63298;53.164;8.610;2022-12-07T12:28:30;7.60;;;1.45;;
74777;SDS011;63298;53.164;8.610;2022-12-07T12:31:07;11.73;;;4.60;;
74777;SDS011;63298;53.164;8.610;2022-12-07T12:33:37;5.40;;;1.00;;
74777;SDS011;63298;53.164;8.610;2022-12-07T12:44:03;3.63;;;1.00;;
74777;SDS011;63298;53.164;8.610;2022-12-07T12:46:58;2.40;;;0.60;;
74777;SDS011;63298;53.164;8.610;2022-12-07T12:59:29;4.25;;;1.10;;
74777;SDS011;63298;53.164;8.610;2022-12-07T13:04:37;3.00;;;1.40;;
74777;SDS011;63298;53.164;8.610;2022-12-07T13:07:08;6.95;;;0.90;;
74777;SDS011;63298;53.164;8.610;2022-12-07T13:09:37;7.22;;;0.80;;
74777;SDS011;63298;53.164;8.610;2022-12-07T13:12:13;12.05;;;0.93;;
74777;SDS011;63298;53.164;8.610;2022-12-07T13:14:59;4.40;;;0.80;;
74777;SDS011;63298;53.164;8.610;2022-12-07T13:19:55;7.72;;;1.83;;
74777;SDS011;63298;53.164;8.610;2022-12-07T13:22:40;7.03;;;1.38;;
74777;SDS011;63298;53.164;8.610;2022-12-07T13:25:12;5.85;;;0.80;;
74777;SDS011;63298;53.164;8.610;2022-12-07T13:27:55;4.28;;;1.00;;
74777;SDS011;63298;53.164;8.610;2022-12-07T13:30:25;4.57;;;1.00;;
74777;SDS011;63298;53.164;8.610;2022-12-07T13:32:56;6.75;;;1.80;;
74777;SDS011;63298;53.164;8.610;2022-12-07T13:35:56;6.97;;;1.73;;
74777;SDS011;63298;53.164;8.610;2022-12-07T13:38:26;12.10;;;1.45;;
74777;SDS011;63298;53.164;8.610;2022-12-07T13:44:22;5.32;;;1.50;;
74777;SDS011;63298;53.164;8.610;2022-12-07T13:49:29;4.55;;;0.70;;
74777;SDS011;63298;53.164;8.610;2022-12-07T13:57:14;3.08;;;0.70;;
74777;SDS011;63298;53.164;8.610;2022-12-07T13:59:43;20.00;;;4.00;;
74777;SDS011;63298;53.164;8.610;2022-12-07T14:02:19;63.17;;;8.95;;
74777;SDS011;63298;53.164;8.610;2022-12-07T14:04:47;3.55;;;0.70;;
74777;SDS011;63298;53.164;8.610;2022-12-07T14:07:24;6.47;;;2.10;;
74777;SDS011;63298;53.164;8.610;2022-12-07T14:12:20;5.90;;;1.60;;
74777;SDS011;63298;53.164;8.610;2022-12-07T14:14:48;3.45;;;1.00;;
74777;SDS011;63298;53.164;8.610;2022-12-07T14:17:18;5.93;;;1.83;;
74777;SDS011;63298;53.164;8.610;2022-12-07T14:19:52;3.00;;;1.10;;
74777;SDS011;63298;53.164;8.610;2022-12-07T14:25:15;8.93;;;1.95;;
74777;SDS011;63298;53.164;8.610;2022-12-07T14:28:02;7.28;;;1.58;;
74777;SDS011;63298;53.164;8.610;2022-12-07T14:30:28;5.97;;;2.03;;
74777;SDS011;63298;53.164;8.610;2022-12-07T14:33:01;6.88;;;2.03;;
74777;SDS011;63298;53.164;8.610;2022-12-07T14:35:30;6.68;;;2.35;;
74777;SDS011;63298;53.164;8.610;2022-12-07T14:37:56;12.43;;;2.85;;
74777;SDS011;63298;53.164;8.610;2022-12-07T14:40:25;18.10;;;6.82;;
74777;SDS011;63298;53.164;8.610;2022-12-07T14:42:54;7.57;;;2.95;;
74777;SDS011;63298;53.164;8.610;2022-12-07T14:45:29;10.15;;;3.45;;
74777;SDS011;63298;53.164;8.610;2022-12-07T14:47:54;3.35;;;1.48;;
74777;SDS011;63298;53.164;8.610;2022-12-07T14:50:20;6.40;;;1.83;;
74777;SDS011;63298;53.164;8.610;2022-12-07T14:52:50;3.78;;;1.80;;
74777;SDS011;63298;53.164;8.610;2022-12-07T14:55:27;3.08;;;1.23;;
74777;SDS011;63298;53.164;8.610;2022-12-07T14:57:54;1.55;;;0.77;;
74777;SDS011;63298;53.164;8.610;2022-12-07T15:00:21;3.35;;;0.77;;
74777;SDS011;63298;53.164;8.610;2022-12-07T15:02:48;5.30;;;1.08;;
74777;SDS011;63298;53.164;8.610;2022-12-07T15:05:14;4.90;;;0.60;;
74777;SDS011;63298;53.164;8.610;2022-12-07T15:07:39;7.28;;;0.70;;
74777;SDS011;63298;53.164;8.610;2022-12-07T15:10:05;4.25;;;0.80;;
74777;SDS011;63298;53.164;8.610;2022-12-07T15:12:31;4.85;;;0.88;;
74777;SDS011;63298;53.164;8.610;2022-12-07T15:14:57;3.47;;;0.82;;
74777;SDS011;63298;53.164;8.610;2022-12-07T15:17:22;2.63;;;1.33;;
74777;SDS011;63298;53.164;8.610;2022-12-07T15:19:47;7.05;;;2.22;;
74777;SDS011;63298;53.164;8.610;2022-12-07T15:22:13;5.07;;;2.17;;
74777;SDS011;63298;53.164;8.610;2022-12-07T15:24:38;6.35;;;1.98;;
74777;SDS011;63298;53.164;8.610;2022-12-07T15:27:05;4.10;;;1.42;;
74777;SDS011;63298;53.164;8.610;2022-12-07T15:29:30;4.97;;;1.85;;
74777;SDS011;63298;53.164;8.610;2022-12-07T15:31:55;2.88;;;1.45;;
74777;SDS011;63298;53.164;8.610;2022-12-07T15:34:21;2.83;;;1.70;;
74777;SDS011;63298;53.164;8.610;2022-12-07T15:36:48;7.13;;;1.90;;
74777;SDS011;63298;53.164;8.610;2022-12-07T15:39:13;3.72;;;1.80;;
74777;SDS011;63298;53.164;8.610;2022-12-07T15:41:38;4.70;;;2.30;;
74777;SDS011;63298;53.164;8.610;2022-12-07T15:44:04;9.43;;;2.50;;
74777;SDS011;63298;53.164;8.610;2022-12-07T15:46:30;4.03;;;1.70;;
74777;SDS011;63298;53.164;8.610;2022-12-07T15:48:56;5.50;;;1.95;;
74777;SDS011;63298;53.164;8.610;2022-12-07T15:51:22;6.07;;;2.00;;
74777;SDS011;63298;53.164;8.610;2022-12-07T15:53:47;4.57;;;1.73;;
74777;SDS011;63298;53.164;8.610;2022-12-07T15:56:13;4.97;;;2.08;;
74777;SDS011;63298;53.164;8.610;2022-12-07T15:58:38;4.17;;;1.80;;
74777;SDS011;63298;53.164;8.610;2022-12-07T16:01:10;2.85;;;1.42;;
74777;SDS011;63298;53.164;8.610;2022-12-07T16:03:36;1.83;;;1.08;;
74777;SDS011;63298;53.164;8.610;2022-12-07T16:06:02;2.38;;;1.30;;
74777;SDS011;63298;53.164;8.610;2022-12-07T16:08:27;6.68;;;2.10;;
74777;SDS011;63298;53.164;8.610;2022-12-07T16:10:52;3.95;;;1.63;;
74777;SDS011;63298;53.164;8.610;2022-12-07T16:13:18;2.93;;;1.83;;
74777;SDS011;63298;53.164;8.610;2022-12-07T16:15:43;3.90;;;1.70;;
74777;SDS011;63298;53.164;8.610;2022-12-07T16:18:08;11.65;;;1.90;;
74777;SDS011;63298;53.164;8.610;2022-12-07T16:20:34;8.63;;;2.92;;
74777;SDS011;63298;53.164;8.610;2022-12-07T16:22:59;9.20;;;1.98;;
74777;SDS011;63298;53.164;8.610;2022-12-07T16:25:25;4.60;;;2.22;;
74777;SDS011;63298;53.164;8.610;2022-12-07T16:27:51;4.73;;;2.93;;
74777;SDS011;63298;53.164;8.610;2022-12-07T16:30:17;6.90;;;2.30;;
74777;SDS011;63298;53.164;8.610;2022-12-07T16:32:42;5.43;;;2.00;;
74777;SDS011;63298;53.164;8.610;2022-12-07T16:35:08;5.45;;;1.20;;
74777;SDS011;63298;53.164;8.610;2022-12-07T16:37:33;7.05;;;2.70;;
74777;SDS011;63298;53.164;8.610;2022-12-07T16:39:59;6.95;;;2.08;;
74777;SDS011;63298;53.164;8.610;2022-12-07T16:42:24;4.28;;;1.45;;
74777;SDS011;63298;53.164;8.610;2022-12-07T16:44:49;4.50;;;1.10;;
74777;SDS011;63298;53.164;8.610;2022-12-07T16:47:15;3.90;;;0.85;;
74777;SDS011;63298;53.164;8.610;2022-12-07T16:49:40;5.60;;;1.58;;
74777;SDS011;63298;53.164;8.610;2022-12-07T16:52:05;2.78;;;1.20;;
74777;SDS011;63298;53.164;8.610;2022-12-07T16:54:31;6.88;;;1.92;;
74777;SDS011;63298;53.164;8.610;2022-12-07T16:56:56;3.13;;;1.40;;
74777;SDS011;63298;53.164;8.610;2022-12-07T16:59:21;2.88;;;1.20;;
74777;SDS011;63298;53.164;8.610;2022-12-07T17:01:47;1.83;;;1.30;;
74777;SDS011;63298;53.164;8.610;2022-12-07T17:04:12;3.97;;;1.60;;
74777;SDS011;63298;53.164;8.610;2022-12-07T17:06:37;6.77;;;2.67;;
74777;SDS011;63298;53.164;8.610;2022-12-07T17:09:03;5.90;;;2.20;;
74777;SDS011;63298;53.164;8.610;2022-12-07T17:11:29;3.13;;;1.48;;
74777;SDS011;63298;53.164;8.610;2022-12-07T17:13:54;6.63;;;2.00;;
74777;SDS011;63298;53.164;8.610;2022-12-07T17:16:20;5.25;;;1.50;;